createdAt,value
2022-09-27T00:05:34.992Z,10
2022-09-27T00:11:15.278Z,9.9
2022-09-27T00:16:55.410Z,9.9
2022-09-27T00:22:35.772Z,9.9
2022-09-27T00:28:16.345Z,9.9
2022-09-27T00:33:56.942Z,9.9
2022-09-27T00:39:37.065Z,9.9
2022-09-27T00:45:35.585Z,10
2022-09-27T00:51:15.560Z,10
2022-09-27T00:56:55.894Z,9.9
2022-09-27T01:02:35.916Z,9.9
2022-09-27T01:08:17.021Z,10
2022-09-27T01:13:57.368Z,10
2022-09-27T01:19:37.616Z,9.9
2022-09-27T01:25:17.709Z,9.9
2022-09-27T01:30:57.791Z,9.9
2022-09-27T01:36:38.294Z,9.9
2022-09-27T01:42:22.151Z,9.9
2022-09-27T01:48:04.069Z,9.8
2022-09-27T01:53:44.358Z,9.7
2022-09-27T01:59:24.687Z,9.7
2022-09-27T02:05:05.092Z,9.6
2022-09-27T02:10:45.236Z,9.5
2022-09-27T02:16:25.399Z,9.5
2022-09-27T02:22:06.626Z,9.4
2022-09-27T02:27:46.820Z,9.4
2022-09-27T02:33:26.856Z,9.3
2022-09-27T02:39:08.146Z,9.4
2022-09-27T02:44:48.878Z,9.3
2022-09-27T02:50:29.226Z,9.3
2022-09-27T02:56:09.509Z,9.3
2022-09-27T03:01:49.770Z,9.3
2022-09-27T03:07:30.944Z,9.3
2022-09-27T03:14:09.538Z,9.3
2022-09-27T03:19:50.773Z,9.3
2022-09-27T03:25:31.089Z,9.2
2022-09-27T03:31:11.550Z,9.2
2022-09-27T03:36:52.418Z,9.2
2022-09-27T03:42:32.849Z,9.2
2022-09-27T03:48:13.441Z,9.1
2022-09-27T03:53:53.521Z,9.1
2022-09-27T03:59:33.937Z,9
2022-09-27T04:05:14.168Z,8.9
2022-09-27T04:10:54.372Z,8.9
2022-09-27T04:16:34.484Z,8.9
2022-09-27T04:22:15.513Z,8.7
2022-09-27T04:27:55.591Z,8.6
2022-09-27T04:33:35.835Z,8.6
2022-09-27T04:39:16.220Z,8.6
2022-09-27T04:44:57.930Z,8.7
2022-09-27T04:50:38.416Z,8.7
2022-09-27T04:56:19.149Z,8.8
2022-09-27T05:01:59.282Z,8.8
2022-09-27T05:07:39.946Z,8.8
2022-09-27T05:13:20.277Z,8.8
2022-09-27T05:19:00.503Z,8.8
2022-09-27T05:24:40.815Z,8.8
2022-09-27T05:30:20.924Z,8.7
2022-09-27T05:36:01.235Z,8.7
2022-09-27T05:41:41.591Z,8.8
2022-09-27T05:47:23.279Z,8.9
2022-09-27T05:53:03.910Z,9
2022-09-27T05:58:44.021Z,9
2022-09-27T06:04:24.223Z,8.9
2022-09-27T06:10:04.287Z,8.9
2022-09-27T06:15:44.311Z,8.9
2022-09-27T06:21:24.912Z,8.8
2022-09-27T06:27:04.973Z,8.9
2022-09-27T06:32:57.136Z,9
2022-09-27T06:38:40.222Z,9.1
2022-09-27T06:44:20.644Z,9.9
2022-09-27T06:50:01.019Z,9.9
2022-09-27T06:55:41.572Z,0.2
2022-09-27T07:01:28.227Z,9.9
2022-09-27T07:07:09.686Z,10.3
2022-09-27T07:12:52.406Z,0
2022-09-27T07:18:35.531Z,9.9
2022-09-27T07:24:19.488Z,9.8
2022-09-27T07:30:05.890Z,10.3
2022-09-27T07:35:46.946Z,11.2
2022-09-27T07:41:27.886Z,11.2
2022-09-27T07:47:14.823Z,10.9
2022-09-27T07:52:54.917Z,0
2022-09-27T07:58:39.247Z,12.4
2022-09-27T08:04:19.716Z,12
2022-09-27T08:09:59.770Z,11.6
2022-09-27T08:15:40.290Z,11.4
2022-09-27T08:21:20.641Z,11.2
2022-09-27T08:27:06.055Z,0
2022-09-27T08:32:52.809Z,11.5
2022-09-27T08:38:39.763Z,11.8
2022-09-27T08:44:20.337Z,11.7
2022-09-27T08:50:00.453Z,11.5
2022-09-27T08:55:41.052Z,11.8
2022-09-27T09:01:25.160Z,12
2022-09-27T09:07:11.379Z,12.5
2022-09-27T09:12:52.211Z,13.1
2022-09-27T09:18:32.124Z,0
2022-09-27T09:24:12.062Z,0
2022-09-27T09:29:53.719Z,0
2022-09-27T09:35:34.690Z,0
2022-09-27T09:41:15.339Z,0
2022-09-27T09:46:56.117Z,0
2022-09-27T09:52:36.637Z,0
2022-09-27T09:58:19.996Z,11.8
2022-09-27T10:04:04.164Z,12.2
2022-09-27T10:09:44.580Z,0
2022-09-27T10:15:24.829Z,11.5
2022-09-27T10:21:05.208Z,11.9
2022-09-27T10:26:45.878Z,12.5
2022-09-27T10:32:25.929Z,12.3
2022-09-27T10:38:06.123Z,12
2022-09-27T10:43:46.345Z,11.8
2022-09-27T10:49:26.527Z,0
2022-09-27T10:55:07.348Z,0
2022-09-27T11:00:47.421Z,0
2022-09-27T11:06:28.045Z,13.3
2022-09-27T11:12:07.758Z,0
2022-09-27T11:17:47.482Z,10.8
2022-09-27T11:23:27.599Z,0
2022-09-27T11:29:07.606Z,0
2022-09-27T11:34:51.631Z,10.9
2022-09-27T11:40:32.148Z,0
2022-09-27T11:46:19.092Z,0
2022-09-27T11:52:23.016Z,11.8
2022-09-27T11:58:03.429Z,0
2022-09-27T12:03:44.361Z,11.8
2022-09-27T12:09:24.547Z,0
2022-09-27T12:15:07.093Z,0
2022-09-27T12:20:47.648Z,0
2022-09-27T12:26:27.437Z,0
2022-09-27T12:32:07.398Z,0
2022-09-27T12:37:48.092Z,0
2022-09-27T12:43:28.400Z,0
2022-09-27T12:49:08.706Z,0
2022-09-27T12:54:49.872Z,11.9
2022-09-27T13:00:29.775Z,0
2022-09-27T13:06:13.058Z,0
2022-09-27T13:11:53.250Z,0
2022-09-27T13:17:34.763Z,0
2022-09-27T13:23:14.771Z,0
2022-09-27T13:28:55.130Z,0
2022-09-27T13:34:48.377Z,0
2022-09-27T13:40:28.862Z,0
2022-09-27T13:46:13.209Z,0
2022-09-27T13:51:54.058Z,12.8
2022-09-27T13:57:34.180Z,12.5
2022-09-27T14:03:14.800Z,12.4
2022-09-27T14:08:54.757Z,0
2022-09-27T14:14:34.844Z,0
2022-09-27T14:20:14.811Z,0
2022-09-27T14:25:54.675Z,0
2022-09-27T14:31:34.872Z,0
2022-09-27T14:37:16.188Z,0
2022-09-27T14:42:56.082Z,0
2022-09-27T14:48:37.179Z,0
2022-09-27T14:59:26.390Z,0
2022-09-27T15:05:08.825Z,11
2022-09-27T15:10:49.496Z,11
2022-09-27T15:16:29.629Z,11
2022-09-27T15:22:10.073Z,0
2022-09-27T15:27:50.522Z,10.4
2022-09-27T15:33:30.711Z,0
2022-09-27T15:39:13.279Z,10.4
2022-09-27T15:44:53.725Z,0
2022-09-27T15:50:33.951Z,0
2022-09-27T15:56:13.876Z,0
2022-09-27T16:01:54.494Z,0
2022-09-27T16:07:35.105Z,0
2022-09-27T16:13:15.200Z,0
2022-09-27T16:18:55.444Z,0
2022-09-27T16:24:35.698Z,0
2022-09-27T16:30:16.189Z,10.6
2022-09-27T16:35:56.560Z,0
2022-09-27T16:41:39.618Z,0
2022-09-27T16:47:19.526Z,0
2022-09-27T16:52:59.488Z,0
2022-09-27T16:58:39.659Z,0
2022-09-27T17:04:19.773Z,0
2022-09-27T17:09:59.783Z,0
2022-09-27T17:15:39.968Z,0
2022-09-27T17:21:20.661Z,0
2022-09-27T17:27:00.770Z,0
2022-09-27T17:37:43.335Z,0
2022-09-27T17:43:23.318Z,0
2022-09-27T17:49:23.746Z,0
2022-09-27T17:55:03.809Z,0
2022-09-27T18:00:44.211Z,0
2022-09-27T18:06:24.314Z,0
2022-09-27T18:12:22.440Z,0
2022-09-27T18:18:02.747Z,0
2022-09-27T18:23:42.850Z,0
2022-09-27T18:29:23.043Z,0
2022-09-27T18:35:09.262Z,0
2022-09-27T18:40:56.369Z,0
2022-09-27T18:46:40.631Z,0
2022-09-27T18:52:22.198Z,0
2022-09-27T18:58:02.529Z,0
2022-09-27T19:03:42.636Z,0
2022-09-27T19:09:22.985Z,0
2022-09-27T19:15:03.112Z,0
2022-09-27T19:20:43.520Z,0
2022-09-27T19:26:29.995Z,0
2022-09-27T19:32:15.566Z,0
2022-09-27T19:37:55.692Z,0
2022-09-27T19:43:39.274Z,0
2022-09-27T19:49:20.235Z,0
2022-09-27T19:55:06.247Z,0
2022-09-27T20:00:48.848Z,0
2022-09-27T20:06:28.882Z,0
2022-09-27T20:12:09.248Z,0
2022-09-27T20:17:58.497Z,0
2022-09-27T20:23:48.922Z,0
2022-09-27T20:29:34.502Z,0
2022-09-27T20:35:19.676Z,0
2022-09-27T20:40:59.627Z,0
2022-09-27T20:46:45.819Z,0
2022-09-27T20:52:29.386Z,0
2022-09-27T20:58:09.232Z,0
2022-09-27T21:03:54.738Z,0
2022-09-27T21:09:38.205Z,0
2022-09-27T21:15:18.167Z,0
2022-09-27T21:21:03.744Z,0
2022-09-27T21:26:44.035Z,0
2022-09-27T21:32:23.811Z,0
2022-09-27T21:38:06.108Z,0
2022-09-27T21:43:49.811Z,0
2022-09-27T21:49:30.152Z,0
2022-09-27T21:55:11.285Z,0
2022-09-27T22:00:53.435Z,0
2022-09-27T22:06:34.336Z,0
2022-09-27T22:12:19.890Z,0
2022-09-27T22:18:00.271Z,0
2022-09-27T22:23:40.531Z,0
2022-09-27T22:29:20.390Z,0
2022-09-27T22:35:00.344Z,0
2022-09-27T22:40:43.051Z,0
2022-09-27T22:46:23.718Z,0
2022-09-27T22:52:04.971Z,0
2022-09-27T22:57:45.260Z,0
2022-09-27T23:03:26.853Z,0
2022-09-27T23:09:07.933Z,7.8
2022-09-27T23:14:48.228Z,7.9
2022-09-27T23:20:28.483Z,7.9
2022-09-27T23:26:09.095Z,7.9
2022-09-27T23:31:48.852Z,0
2022-09-27T23:37:32.021Z,7.9
2022-09-27T23:43:13.332Z,8
2022-09-27T23:48:53.577Z,0
2022-09-27T23:54:36.803Z,0
